Time;durP1;ratioP1;P1;durP2;ratioP2;P2;SDS_P1;SDS_P2;PMS_P1;PMS_P2;Temp;Humidity;BMP_temperature;BMP_pressure;BME280_temperature;BME280_humidity;BME280_pressure;Samples;Min_cycle;Max_cycle;Signal;HPM_P1;HPM_P2
2023/07/16 00:00:10;;;;;;;5.80;4.22;;;23.70;99.90;;;;;;5056068;28;20111;-66
2023/07/16 00:02:38;;;;;;;7.20;4.40;;;23.60;99.90;;;;;;5073652;28;20490;-66
2023/07/16 00:05:04;;;;;;;7.63;4.63;;;23.60;99.90;;;;;;5073521;28;20029;-66
2023/07/16 00:07:30;;;;;;;5.80;3.90;;;23.50;99.90;;;;;;5073559;28;20029;-66
2023/07/16 00:09:56;;;;;;;6.85;4.50;;;23.50;99.90;;;;;;5073915;28;20075;-66
2023/07/16 00:12:21;;;;;;;6.50;3.90;;;23.50;99.90;;;;;;5073552;28;20106;-66
2023/07/16 00:14:48;;;;;;;5.13;4.00;;;23.40;99.90;;;;;;5055537;28;20020;-66
2023/07/16 00:17:13;;;;;;;4.28;3.92;;;23.40;99.90;;;;;;5073850;28;20036;-66
2023/07/16 00:19:39;;;;;;;4.60;4.20;;;23.30;99.90;;;;;;5055597;28;20079;-66
2023/07/16 00:22:05;;;;;;;7.78;4.85;;;23.20;99.90;;;;;;5073361;28;20032;-66
2023/07/16 00:24:30;;;;;;;6.93;4.20;;;23.20;99.90;;;;;;5073059;28;20025;-66
2023/07/16 00:26:57;;;;;;;8.43;4.20;;;23.10;99.90;;;;;;5055814;28;20028;-66
2023/07/16 00:29:23;;;;;;;10.05;4.22;;;23.00;99.90;;;;;;5073220;28;20020;-66
2023/07/16 00:31:48;;;;;;;5.45;4.03;;;23.00;99.90;;;;;;5073436;28;20056;-66
2023/07/16 00:34:14;;;;;;;10.55;4.65;;;22.80;99.90;;;;;;5073275;28;20033;-67
2023/07/16 00:36:40;;;;;;;11.30;4.47;;;22.70;99.90;;;;;;5073313;28;20043;-66
2023/07/16 00:39:05;;;;;;;7.18;4.38;;;22.60;99.90;;;;;;5073257;28;20024;-66
2023/07/16 00:41:31;;;;;;;9.50;4.60;;;22.50;99.90;;;;;;5055249;28;20028;-67
2023/07/16 00:43:57;;;;;;;6.03;4.03;;;22.50;99.90;;;;;;5073173;28;20058;-66
2023/07/16 00:46:24;;;;;;;7.95;4.85;;;22.40;99.90;;;;;;5073127;28;20021;-66
2023/07/16 00:48:50;;;;;;;6.68;4.30;;;22.50;99.90;;;;;;5055692;28;20086;-66
2023/07/16 00:51:17;;;;;;;9.02;4.47;;;22.40;99.90;;;;;;5073181;28;20049;-66
2023/07/16 00:53:43;;;;;;;6.20;4.38;;;22.50;99.90;;;;;;5055432;28;20066;-66
2023/07/16 00:56:10;;;;;;;6.50;4.50;;;22.40;99.90;;;;;;5073064;28;20032;-66
2023/07/16 00:58:35;;;;;;;8.90;4.25;;;22.40;99.90;;;;;;5073071;28;20035;-66
2023/07/16 01:01:01;;;;;;;5.78;4.60;;;22.30;99.90;;;;;;5076577;28;20025;-66
2023/07/16 01:03:27;;;;;;;6.50;5.20;;;22.30;99.90;;;;;;5076724;28;20032;-66
2023/07/16 01:05:57;;;;;;;9.88;4.32;;;22.20;99.90;;;;;;5076596;28;20028;-66
2023/07/16 01:08:42;;;;;;;7.38;4.38;;;22.20;99.90;;;;;;5076729;28;20082;-66
2023/07/16 01:11:09;;;;;;;10.40;5.80;;;22.20;99.90;;;;;;5076559;28;20040;-66
2023/07/16 01:13:35;;;;;;;8.77;5.00;;;22.10;99.90;;;;;;5076684;28;20027;-66
2023/07/16 01:16:02;;;;;;;8.15;4.53;;;22.10;99.90;;;;;;5076419;28;20056;-66
2023/07/16 01:18:27;;;;;;;6.45;4.25;;;22.00;99.90;;;;;;5076658;28;20031;-66
2023/07/16 01:20:53;;;;;;;7.47;4.90;;;21.90;99.90;;;;;;5076086;28;20111;-66
2023/07/16 01:23:37;;;;;;;6.90;4.60;;;21.90;99.90;;;;;;5076332;28;20040;-66
2023/07/16 01:26:18;;;;;;;7.07;4.82;;;21.80;99.90;;;;;;5076590;28;20035;-66
2023/07/16 01:29:20;;;;;;;6.13;4.70;;;21.70;99.90;;;;;;5076224;28;20031;-66
2023/07/16 01:31:49;;;;;;;9.50;5.05;;;21.70;99.90;;;;;;5058097;28;20131;-66
2023/07/16 01:34:15;;;;;;;7.53;5.05;;;21.60;99.90;;;;;;5075787;28;20027;-66
2023/07/16 01:36:42;;;;;;;6.50;5.15;;;21.60;99.90;;;;;;5075712;28;20392;-66
2023/07/16 01:39:07;;;;;;;8.45;4.68;;;21.50;99.90;;;;;;5076127;28;20536;-66
2023/07/16 01:41:33;;;;;;;5.80;5.00;;;21.40;99.90;;;;;;5057941;28;20032;-66
2023/07/16 01:43:58;;;;;;;7.72;4.72;;;21.40;99.90;;;;;;5075902;28;20029;-66
2023/07/16 01:46:25;;;;;;;7.07;4.85;;;21.40;99.90;;;;;;5075893;28;20107;-66
2023/07/16 01:48:50;;;;;;;7.10;4.93;;;21.30;99.90;;;;;;5075520;28;20021;-66
2023/07/16 01:51:16;;;;;;;8.25;4.72;;;21.30;99.90;;;;;;5062781;28;20048;-66
2023/07/16 01:53:42;;;;;;;6.97;5.85;;;21.30;99.90;;;;;;5096375;28;20034;-66
2023/07/16 01:56:08;;;;;;;11.15;4.82;;;21.30;99.90;;;;;;5095896;28;20067;-66
2023/07/16 01:58:33;;;;;;;6.85;5.07;;;21.30;99.90;;;;;;5096064;28;20178;-66
2023/07/16 02:00:59;;;;;;;9.25;5.15;;;21.20;99.90;;;;;;5095834;28;20024;-66
2023/07/16 02:03:24;;;;;;;7.00;5.32;;;21.20;99.90;;;;;;5095672;28;20081;-66
2023/07/16 02:05:50;;;;;;;8.40;5.90;;;21.10;99.90;;;;;;5095732;28;20491;-66
2023/07/16 02:08:18;;;;;;;9.95;5.40;;;21.10;99.90;;;;;;5095676;28;20048;-66
2023/07/16 02:10:43;;;;;;;8.02;5.15;;;21.10;99.90;;;;;;5095810;28;20028;-66
2023/07/16 02:13:09;;;;;;;11.93;5.28;;;21.00;99.90;;;;;;5095738;28;20031;-66
2023/07/16 02:15:35;;;;;;;9.10;5.70;;;20.90;99.90;;;;;;5095625;28;20107;-66
2023/07/16 02:18:00;;;;;;;9.00;5.85;;;20.90;99.90;;;;;;5096034;28;20025;-66
2023/07/16 02:20:26;;;;;;;9.05;5.30;;;20.80;99.90;;;;;;5095396;28;20032;-66
2023/07/16 02:22:52;;;;;;;10.20;5.50;;;20.80;99.90;;;;;;5095038;28;20517;-66
2023/07/16 02:25:17;;;;;;;9.05;5.50;;;20.80;99.90;;;;;;5095356;28;20536;-66
2023/07/16 02:27:43;;;;;;;9.18;5.32;;;20.80;99.90;;;;;;5095308;28;20490;-66
2023/07/16 02:30:09;;;;;;;7.18;5.20;;;20.80;99.90;;;;;;5095332;28;20039;-66
2023/07/16 02:32:34;;;;;;;6.47;5.32;;;20.70;99.90;;;;;;5095180;28;20146;-65
2023/07/16 02:35:01;;;;;;;10.18;5.30;;;20.70;99.90;;;;;;5095191;28;20152;-66
2023/07/16 02:37:27;;;;;;;9.63;5.75;;;20.70;99.90;;;;;;5095119;28;20028;-66
2023/07/16 02:39:52;;;;;;;8.93;6.15;;;20.70;99.90;;;;;;5095158;28;20110;-66
2023/07/16 02:42:18;;;;;;;9.48;5.43;;;20.60;99.90;;;;;;5094911;28;20067;-66
2023/07/16 02:44:44;;;;;;;7.50;5.65;;;20.60;99.90;;;;;;5095241;28;20028;-66
2023/07/16 02:47:13;;;;;;;9.48;6.28;;;20.60;99.90;;;;;;5094881;28;20111;-66
2023/07/16 02:49:39;;;;;;;10.45;5.90;;;20.60;99.90;;;;;;5094872;28;20024;-66
2023/07/16 02:52:06;;;;;;;6.95;6.03;;;20.60;99.90;;;;;;5083626;28;20048;-66
2023/07/16 02:54:31;;;;;;;5.80;5.22;;;20.60;99.90;;;;;;5056567;28;20028;-66
2023/07/16 02:56:58;;;;;;;6.22;5.63;;;20.60;99.90;;;;;;5074451;28;20016;-66
2023/07/16 02:59:23;;;;;;;5.93;5.43;;;20.50;99.90;;;;;;5056132;28;20123;-67
2023/07/16 03:01:50;;;;;;;7.30;5.57;;;20.40;99.90;;;;;;5074343;28;20107;-66
2023/07/16 03:04:16;;;;;;;8.88;5.80;;;20.40;99.90;;;;;;5074031;28;20084;-66
2023/07/16 03:06:42;;;;;;;11.00;6.20;;;20.30;99.90;;;;;;5074405;28;20064;-66
2023/07/16 03:09:07;;;;;;;7.38;5.32;;;20.30;99.90;;;;;;5056297;28;20028;-65
2023/07/16 03:11:33;;;;;;;10.57;6.20;;;20.20;99.90;;;;;;5073913;28;20031;-64
2023/07/16 03:13:58;;;;;;;8.27;5.60;;;20.20;99.90;;;;;;5074058;28;20089;-66
2023/07/16 03:16:24;;;;;;;8.27;5.93;;;20.20;99.90;;;;;;5074123;28;20025;-66
2023/07/16 03:18:49;;;;;;;8.50;6.03;;;20.10;99.90;;;;;;5074105;28;20027;-66
2023/07/16 03:21:15;;;;;;;9.43;5.93;;;20.00;99.90;;;;;;5074307;28;20040;-66
2023/07/16 03:23:41;;;;;;;8.77;6.30;;;20.00;99.90;;;;;;5073699;28;20468;-66
2023/07/16 03:26:06;;;;;;;7.88;5.93;;;20.00;99.90;;;;;;5073994;28;20112;-65
2023/07/16 03:28:32;;;;;;;14.30;6.40;;;20.00;99.90;;;;;;5073996;28;20048;-65
2023/07/16 03:30:57;;;;;;;8.30;6.40;;;20.00;99.90;;;;;;5056047;28;20436;-65
2023/07/16 03:33:23;;;;;;;11.20;7.65;;;19.90;99.90;;;;;;5055942;28;20086;-66
2023/07/16 03:35:49;;;;;;;10.95;6.65;;;19.90;99.90;;;;;;5073857;28;20104;-65
2023/07/16 03:38:15;;;;;;;10.35;6.82;;;19.90;99.90;;;;;;5055873;28;20035;-65
2023/07/16 03:40:46;;;;;;;9.07;6.18;;;19.90;99.90;;;;;;5056400;28;20067;-66
2023/07/16 03:43:12;;;;;;;10.55;6.65;;;19.90;99.90;;;;;;5073521;28;20380;-65
2023/07/16 03:45:37;;;;;;;8.38;6.75;;;20.00;99.90;;;;;;5074030;28;20095;-65
2023/07/16 03:48:03;;;;;;;9.35;5.93;;;20.00;99.90;;;;;;5055723;28;20024;-65
2023/07/16 03:50:29;;;;;;;8.18;6.20;;;20.00;99.90;;;;;;5073754;28;20024;-66
2023/07/16 03:52:55;;;;;;;7.72;5.70;;;20.00;99.90;;;;;;5073926;28;20082;-65
2023/07/16 03:55:21;;;;;;;8.70;6.13;;;20.00;99.90;;;;;;5055662;28;20111;-66
2023/07/16 03:57:47;;;;;;;9.38;6.18;;;20.00;99.90;;;;;;5073777;28;20044;-67
2023/07/16 04:00:12;;;;;;;6.93;6.22;;;20.10;99.90;;;;;;5055576;28;20468;-65
2023/07/16 04:02:38;;;;;;;8.80;6.07;;;20.10;99.90;;;;;;5055549;28;20032;-65
2023/07/16 04:05:04;;;;;;;8.63;6.40;;;20.20;99.90;;;;;;5073577;28;20472;-65
2023/07/16 04:07:29;;;;;;;9.57;6.78;;;20.20;99.90;;;;;;5073679;28;20048;-65
2023/07/16 04:09:55;;;;;;;6.93;6.22;;;20.30;99.90;;;;;;5073440;28;20379;-65
2023/07/16 04:12:21;;;;;;;8.93;6.40;;;20.20;99.90;;;;;;5055526;28;20040;-66
2023/07/16 04:14:47;;;;;;;7.45;5.68;;;20.30;99.90;;;;;;5055518;28;20032;-65
2023/07/16 04:17:12;;;;;;;7.97;6.13;;;20.40;99.90;;;;;;5073341;28;20031;-65
2023/07/16 04:19:38;;;;;;;6.72;6.13;;;20.40;99.90;;;;;;5055589;28;20021;-65
2023/07/16 04:22:04;;;;;;;7.57;5.90;;;20.50;99.90;;;;;;5073353;28;20468;-65
2023/07/16 04:24:30;;;;;;;12.90;6.32;;;20.50;99.90;;;;;;5073431;28;20032;-65
2023/07/16 04:26:58;;;;;;;9.38;6.38;;;20.60;99.90;;;;;;5073098;28;20376;-65
2023/07/16 04:29:23;;;;;;;7.25;5.70;;;20.70;99.90;;;;;;5073327;28;20083;-65
2023/07/16 04:31:49;;;;;;;6.78;5.93;;;20.70;99.90;;;;;;5073167;28;20029;-65
2023/07/16 04:34:15;;;;;;;9.80;5.97;;;20.90;99.90;;;;;;5074498;28;20021;-66
2023/07/16 04:36:42;;;;;;;8.55;6.25;;;21.00;99.90;;;;;;5059192;28;20033;-65
2023/07/16 04:39:08;;;;;;;8.82;6.05;;;21.10;99.90;;;;;;5077101;28;20033;-65
2023/07/16 04:41:34;;;;;;;9.18;5.90;;;21.30;99.90;;;;;;5076958;28;20047;-65
2023/07/16 04:43:59;;;;;;;7.40;6.05;;;21.30;99.90;;;;;;5077155;28;20377;-65
2023/07/16 04:46:25;;;;;;;6.93;5.88;;;21.40;99.90;;;;;;5077124;28;20021;-65
2023/07/16 04:48:50;;;;;;;8.75;5.30;;;21.50;99.90;;;;;;5076847;28;20032;-65
2023/07/16 04:51:16;;;;;;;14.05;6.38;;;21.50;99.90;;;;;;5076963;28;20423;-65
2023/07/16 04:53:42;;;;;;;9.90;5.43;;;21.60;99.90;;;;;;5059115;28;20032;-65
2023/07/16 04:56:14;;;;;;;6.05;4.88;;;21.70;99.90;;;;;;5076930;28;20472;-66
2023/07/16 04:58:40;;;;;;;7.18;5.18;;;21.90;99.90;;;;;;5076961;28;20037;-66
2023/07/16 05:01:07;;;;;;;8.27;5.78;;;22.10;99.90;;;;;;5058718;28;20423;-65
2023/07/16 05:03:33;;;;;;;6.35;5.13;;;22.30;99.90;;;;;;5076640;28;20039;-65
2023/07/16 05:05:59;;;;;;;8.52;5.43;;;22.50;99.90;;;;;;5076599;28;20029;-65
2023/07/16 05:08:24;;;;;;;7.85;5.80;;;22.60;99.90;;;;;;5058554;28;20060;-65
2023/07/16 05:10:50;;;;;;;6.78;6.07;;;22.70;99.90;;;;;;5076568;28;20025;-65
2023/07/16 05:13:16;;;;;;;6.35;5.28;;;22.70;99.90;;;;;;5076571;28;20029;-63
2023/07/16 05:15:44;;;;;;;11.45;5.18;;;22.80;99.90;;;;;;5076000;28;20058;-63
2023/07/16 05:18:09;;;;;;;6.93;5.13;;;22.90;99.90;;;;;;5076708;28;20095;-62
2023/07/16 05:20:35;;;;;;;8.60;5.72;;;23.10;99.90;;;;;;5076289;28;20484;-63
2023/07/16 05:23:01;;;;;;;7.93;5.30;;;23.20;99.90;;;;;;5076174;28;20032;-62
2023/07/16 05:25:27;;;;;;;5.70;5.00;;;23.30;99.90;;;;;;5058257;28;20067;-62
2023/07/16 05:27:52;;;;;;;6.10;4.88;;;23.40;99.90;;;;;;5076524;28;20031;-66
2023/07/16 05:30:18;;;;;;;6.78;4.32;;;23.50;99.90;;;;;;5076137;28;20029;-61
2023/07/16 05:32:44;;;;;;;5.20;4.30;;;23.60;99.90;;;;;;5076065;28;20041;-60
2023/07/16 05:35:09;;;;;;;9.20;4.45;;;23.70;99.90;;;;;;5075729;28;20044;-59
2023/07/16 05:37:35;;;;;;;9.13;4.45;;;23.80;99.90;;;;;;5076108;28;20044;-60
2023/07/16 05:40:01;;;;;;;4.30;3.83;;;24.00;99.90;;;;;;5076023;28;20032;-60
2023/07/16 05:42:26;;;;;;;6.13;4.03;;;24.00;99.90;;;;;;5075900;28;20495;-59
2023/07/16 05:44:52;;;;;;;5.95;3.72;;;24.10;99.90;;;;;;5057814;28;20028;-60
2023/07/16 05:47:18;;;;;;;4.72;3.58;;;24.10;99.90;;;;;;5075849;28;20415;-59
2023/07/16 05:49:43;;;;;;;6.72;4.05;;;24.20;99.90;;;;;;5057502;28;20559;-62
2023/07/16 05:52:09;;;;;;;4.85;3.70;;;24.30;99.90;;;;;;5075867;28;20052;-59
2023/07/16 05:54:35;;;;;;;4.70;3.97;;;24.30;99.90;;;;;;5075745;28;20025;-58
2023/07/16 05:57:00;;;;;;;10.48;3.83;;;24.40;99.90;;;;;;5057737;28;20032;-60
2023/07/16 05:59:26;;;;;;;6.70;3.63;;;24.50;99.90;;;;;;5075848;28;20070;-59
2023/07/16 06:01:52;;;;;;;8.02;3.90;;;24.60;99.90;;;;;;5075493;28;20081;-60
2023/07/16 06:04:18;;;;;;;6.85;3.53;;;24.70;99.90;;;;;;5058099;28;20123;-60
2023/07/16 06:06:43;;;;;;;4.82;3.67;;;24.70;99.90;;;;;;5057896;28;20024;-62
2023/07/16 06:09:09;;;;;;;7.78;3.83;;;24.80;99.90;;;;;;5075521;28;20525;-62
2023/07/16 06:11:34;;;;;;;8.75;3.90;;;24.90;99.90;;;;;;5075140;28;20029;-62
2023/07/16 06:14:00;;;;;;;7.95;3.72;;;25.00;99.90;;;;;;5075330;28;20058;-60
2023/07/16 06:16:26;;;;;;;6.97;4.05;;;25.20;99.90;;;;;;5075299;28;20025;-62
2023/07/16 06:18:51;;;;;;;6.35;3.60;;;25.30;99.90;;;;;;5075275;28;20030;-61
2023/07/16 06:21:17;;;;;;;6.32;3.95;;;25.50;99.90;;;;;;5057272;28;20488;-62
2023/07/16 06:23:43;;;;;;;9.63;3.92;;;25.90;99.90;;;;;;5057729;28;20035;-62
2023/07/16 06:26:09;;;;;;;8.48;3.97;;;26.20;99.90;;;;;;5075295;28;20430;-62
2023/07/16 06:28:34;;;;;;;11.80;4.65;;;26.40;99.90;;;;;;5075111;28;20031;-62
2023/07/16 06:31:00;;;;;;;4.43;3.30;;;26.50;99.90;;;;;;5074920;28;20028;-65
2023/07/16 06:33:27;;;;;;;5.00;4.25;;;26.60;99.90;;;;;;5056860;28;20508;-67
2023/07/16 06:35:52;;;;;;;6.68;3.90;;;26.70;99.90;;;;;;5074798;28;20086;-73
2023/07/16 06:38:18;;;;;;;4.72;3.60;;;26.70;99.90;;;;;;5057438;28;20465;-74
2023/07/16 06:40:48;;;;;;;5.32;4.00;;;26.70;99.90;;;;;;5074794;28;20465;-74
2023/07/16 06:43:14;;;;;;;5.05;4.03;;;26.90;99.90;;;;;;5056386;28;20184;-74
2023/07/16 06:45:40;;;;;;;6.18;3.72;;;27.00;99.90;;;;;;5062246;28;20069;-74
2023/07/16 06:48:05;;;;;;;7.75;4.03;;;27.10;99.90;;;;;;5041070;28;20056;-68
2023/07/16 06:50:31;;;;;;;4.40;3.63;;;27.40;99.40;;;;;;5054620;28;20419;-68
2023/07/16 06:52:57;;;;;;;7.15;3.83;;;27.70;99.40;;;;;;5069227;28;20049;-68
2023/07/16 06:55:22;;;;;;;3.60;3.20;;;27.90;98.60;;;;;;5077662;28;20021;-68
2023/07/16 06:57:48;;;;;;;5.07;2.90;;;28.30;97.80;;;;;;5087987;28;20028;-68
2023/07/16 07:00:14;;;;;;;7.53;2.90;;;28.60;97.00;;;;;;5085995;28;20082;-68
2023/07/16 07:02:40;;;;;;;6.13;3.35;;;29.00;95.80;;;;;;5094569;28;20036;-68
2023/07/16 07:05:06;;;;;;;4.25;3.28;;;29.30;95.10;;;;;;5089224;28;20082;-69
2023/07/16 07:07:31;;;;;;;3.38;2.60;;;29.50;93.90;;;;;;5081749;28;20024;-68
2023/07/16 07:09:57;;;;;;;7.55;2.80;;;29.40;93.20;;;;;;5075789;28;20031;-69
2023/07/16 07:12:22;;;;;;;4.05;2.88;;;29.30;93.30;;;;;;5087276;28;20058;-68
2023/07/16 07:14:48;;;;;;;3.55;2.72;;;29.40;92.30;;;;;;5094096;28;20035;-68
2023/07/16 07:17:14;;;;;;;3.92;2.60;;;29.50;91.80;;;;;;5094409;28;20032;-75
2023/07/16 07:19:42;;;;;;;3.63;2.42;;;29.60;91.70;;;;;;5093057;28;20028;-69
2023/07/16 07:22:08;;;;;;;2.60;2.40;;;30.00;90.90;;;;;;5094235;28;20024;-70
2023/07/16 07:24:34;;;;;;;7.10;2.70;;;29.90;90.40;;;;;;5094271;28;20274;-70
2023/07/16 07:26:59;;;;;;;5.38;2.70;;;30.10;89.70;;;;;;5094211;28;20020;-70
2023/07/16 07:29:25;;;;;;;5.15;2.83;;;29.90;88.40;;;;;;5094181;28;20097;-70
2023/07/16 07:31:52;;;;;;;5.50;2.30;;;30.20;89.10;;;;;;5094121;28;20031;-70
2023/07/16 07:34:17;;;;;;;3.95;2.40;;;30.10;86.70;;;;;;5094156;28;20074;-69
2023/07/16 07:36:43;;;;;;;2.38;2.08;;;30.00;87.00;;;;;;5093779;28;20464;-69
2023/07/16 07:39:08;;;;;;;4.75;2.63;;;30.40;86.20;;;;;;5091993;28;20036;-69
2023/07/16 07:41:34;;;;;;;3.72;2.28;;;30.10;84.30;;;;;;5091550;28;20044;-69
2023/07/16 07:44:00;;;;;;;2.97;2.67;;;30.30;84.90;;;;;;5091773;28;20064;-69
2023/07/16 07:46:25;;;;;;;4.68;2.58;;;30.60;83.10;;;;;;5074716;28;20028;-67
